ADDS METAR Data INFO
IDs: Format: Raw Decoded Include TAF

Data at: 0218 UTC 14 Dec 2017

KBIE 140155Z AUTO 02004KT 10SM CLR 02/M02 A2996 RMK AO2 T00181024
KBIE 140135Z AUTO 02006KT 10SM CLR 02/M03 A2994 RMK AO2 T00161034
KBIE 140115Z AUTO 33007KT 10SM CLR 00/M04 A2993 RMK AO2 T10021045
KBIE 140055Z AUTO 32007KT 10SM CLR 01/M04 A2991 RMK AO2 T00141037
KBIE 140035Z AUTO 32006KT 10SM CLR 04/M03 A2990 RMK AO2 T00381026
KBIE 140015Z AUTO 34009KT 10SM CLR 04/M03 A2989 RMK AO2 T00381028
KBIE 132355Z AUTO 32009KT 10SM CLR 05/M02 A2989 RMK AO2 T00511025 10130 20051
KBIE 132335Z AUTO 33011KT 10SM CLR 07/M02 A2988 RMK AO2 T00721020
KBIE 132315Z AUTO 32011KT 10SM CLR 08/M02 A2987 RMK AO2 T00771021
KBIE 132255Z AUTO 33015KT 10SM CLR 09/M02 A2986 RMK AO2 T00891020
KBIE 132235Z AUTO 33017KT 10SM CLR 10/M02 A2985 RMK AO2 T00971020
KBIE 132215Z AUTO 32016G23KT 10SM CLR 11/M02 A2985 RMK AO2 T01061020
KBIE 132155Z AUTO 33019G24KT CLR 12/M02 A2985 RMK AO2 T01151019 PWINO
KBIE 132135Z AUTO 33020G28KT CLR 12/M02 A2984 RMK AO2 T01181020 PWINO
KBIE 132115Z AUTO 33023G27KT 3/4SM HZ VV005 12/M02 A2984 RMK AO2 T01241019
KBIE 132055Z AUTO 33024G29KT 10SM CLR 12/M02 A2984 RMK AO2 T01241020
KBIE 132035Z AUTO 33025G30KT 10SM CLR 13/M02 A2984 RMK AO2 T01261020
KBIE 132015Z AUTO 33026G31KT 10SM CLR 13/M02 A2984 RMK AO2 T01271020
KBIE 131955Z AUTO 33025G33KT 10SM CLR 13/M02 A2983 RMK AO2 T01261020
KBIE 131935Z AUTO 32027G32KT 10SM CLR 13/M02 A2983 RMK AO2 T01281020
KBIE 131915Z AUTO 32027G32KT 10SM CLR 13/M02 A2983 RMK AO2 T01301021
KBIE 131855Z AUTO 32027G31KT 10SM CLR 13/M02 A2983 RMK AO2 T01261024
KBIE 131835Z AUTO 32026G31KT 10SM CLR 13/M02 A2984 RMK AO2 T01301024
KBIE 131815Z AUTO 33027G33KT 10SM CLR 13/M03 A2984 RMK AO2 T01301026
KBIE 131755Z AUTO 32028G35KT 10SM CLR 13/M03 A2984 RMK AO2 60001 T01301027 10132 20061
KBIE 131735Z AUTO 32029G33KT 10SM CLR 13/M03 A2984 RMK AO2 T01301030
KBIE 131715Z AUTO 33022G30KT 10SM CLR 13/M03 A2984 RMK AO2 T01311031
KBIE 131655Z AUTO 32024G36KT 10SM CLR 13/M03 A2984 RMK AO2 P0001 T01261026
KBIE 131635Z AUTO 32025G34KT 10SM CLR 12/M02 A2984 RMK AO2 P0001 T01231025
KBIE 131615Z AUTO 32033G39KT 10SM CLR 12/M02 A2984 RMK AO2 P0001 T01191024
KBIE 131555Z AUTO 32024G36KT 10SM CLR 12/M03 A2983 RMK AO2 T01201028
KBIE 131535Z AUTO 32026G34KT 10SM CLR 12/M03 A2982 RMK AO2 T01181035
KBIE 131515Z AUTO 32024G32KT 10SM CLR 12/M04 A2981 RMK AO2 T01161037
KBIE 131455Z AUTO 31020G27KT 10SM CLR 12/M04 A2980 RMK AO2 T01151042
KBIE 131435Z AUTO 32028G35KT 10SM CLR 12/M04 A2978 RMK AO2 T01151043
KBIE 131415Z AUTO 31023G30KT 10SM CLR 11/M05 A2977 RMK AO2 T01121047
KBIE 131355Z AUTO 30018G23KT 10SM CLR 10/M05 A2976 RMK AO2 T01011046
KBIE 131335Z AUTO 29011KT 10SM CLR 09/M04 A2976 RMK AO2 T00931042
KBIE 131315Z AUTO 29012G16KT 10SM CLR 09/M04 A2974 RMK AO2 T00921045
KBIE 131255Z AUTO 30013KT 10SM CLR 09/M04 A2974 RMK AO2 T00911045
KBIE 131235Z AUTO 30013KT 10SM SCT100 09/M04 A2973 RMK AO2 T00871045
KBIE 131215Z AUTO 30011KT 10SM BKN110 08/M04 A2973 RMK AO2 T00751045
KBIE 131155Z AUTO 29011KT 10SM BKN110 06/M04 A2973 RMK AO2 T00581044 10058 20004 400911092
KBIE 131135Z AUTO 29011KT 10SM SCT110 03/M05 A2973 RMK AO2 T00301048
KBIE 131115Z AUTO 28009KT 10SM CLR 03/M05 A2972 RMK AO2 T00261050
KBIE 131055Z AUTO 28008KT 10SM SCT110 02/M05 A2971 RMK AO2 T00201050
KBIE 131035Z AUTO 27008KT 10SM CLR 02/M05 A2971 RMK AO2 T00171050
KBIE 131015Z AUTO 27008KT 10SM CLR 02/M05 A2971 RMK AO2 T00211049
KBIE 130955Z AUTO 27009KT 10SM CLR 03/M05 A2971 RMK AO2 T00261048
KBIE 130935Z AUTO 26006KT 10SM CLR 01/M05 A2971 RMK AO2 T00141053
KBIE 130915Z AUTO 23005KT 10SM CLR 02/M05 A2971 RMK AO2 T00191050
KBIE 130855Z AUTO 23007KT 10SM CLR 03/M05 A2972 RMK AO2 T00261050
KBIE 130835Z AUTO 23006KT 10SM CLR 03/M05 A2972 RMK AO2 T00281047
KBIE 130815Z AUTO 22007KT 10SM CLR 04/M04 A2972 RMK AO2 T00351045
KBIE 130755Z AUTO 22009KT 10SM CLR 04/M04 A2973 RMK AO2 T00361045
KBIE 130735Z AUTO 22004KT 10SM CLR 03/M04 A2974 RMK AO2 T00251045
KBIE 130715Z AUTO 21005KT 10SM CLR 02/M04 A2975 RMK AO2 T00201044
KBIE 130655Z AUTO 19005KT 10SM CLR 02/M04 A2977 RMK AO2 T00201042
KBIE 130635Z AUTO 19004KT 10SM CLR 00/M04 A2978 RMK AO2 T00041045
KBIE 130615Z AUTO 19005KT 10SM CLR 02/M04 A2980 RMK AO2 T00181042
KBIE 130555Z AUTO 16003KT 10SM CLR 02/M04 A2982 RMK AO2 T00151038 10052 20010
KBIE 130535Z AUTO 18003KT 10SM CLR 02/M04 A2982 RMK AO2 T00151037
KBIE 130515Z AUTO 16005KT 10SM CLR 01/M04 A2983 RMK AO2 T00131038
KBIE 130455Z AUTO 15005KT 10SM CLR 02/M04 A2985 RMK AO2 T00151038
KBIE 130435Z AUTO 16006KT 10SM CLR 02/M04 A2986 RMK AO2 T00161037
KBIE 130415Z AUTO 17006KT 10SM CLR 02/M03 A2988 RMK AO2 T00201035
KBIE 130355Z AUTO 20007KT 10SM CLR 03/M03 A2990 RMK AO2 T00251035
KBIE 130335Z AUTO 20008KT 10SM CLR 03/M03 A2991 RMK AO2 T00271033
KBIE 130315Z AUTO 20007KT 10SM CLR 03/M03 A2993 RMK AO2 T00291033
KBIE 130255Z AUTO 21007KT 10SM CLR 03/M03 A2993 RMK AO2 T00281033
KBIE 130235Z AUTO 22006KT 10SM CLR 03/M03 A2995 RMK AO2 T00251035
KBIE 130215Z AUTO 23010KT 10SM CLR 04/M03 A2996 RMK AO2 T00381030
KBIE 130155Z AUTO 22009KT 10SM CLR 05/M03 A2997 RMK AO2 T00511029
KBIE 130135Z AUTO 22009KT 10SM CLR 04/M03 A2998 RMK AO2 T00421030
KBIE 130115Z AUTO 22009KT 10SM CLR 04/M03 A2999 RMK AO2 T00361030
KBIE 130055Z AUTO 21008KT 10SM CLR 04/M03 A3000 RMK AO2 T00361031
KBIE 130035Z AUTO 21008KT 10SM CLR 04/M03 A3001 RMK AO2 T00381035
KBIE 130010Z AUTO 20008KT 10SM CLR 04/M03 A3003 RMK AO2 T00381035
KBIE 122355Z AUTO 20006KT 10SM CLR 04/M04 A3004 RMK AO2 T00371037 10091 20037
KBIE 122335Z AUTO 21006KT 10SM CLR 05/M03 A3004 RMK AO2 T00451035
KBIE 122315Z AUTO 22006KT 10SM CLR 06/M03 A3005 RMK AO2 T00551033
KBIE 122255Z AUTO 23007KT 10SM CLR 07/M03 A3006 RMK AO2 T00691030
KBIE 122235Z AUTO 24008KT 10SM CLR 08/M03 A3007 RMK AO2 T00801030
KBIE 122215Z AUTO 25010KT 10SM CLR 09/M03 A3007 RMK AO2 T00861028
KBIE 122155Z AUTO 25009KT 10SM CLR 09/M02 A3008 RMK AO2 T00901025
KBIE 122135Z AUTO 28010G15KT 10SM CLR 09/M03 A3010 RMK AO2 T00911026
KBIE 122115Z AUTO 29010KT 10SM CLR 09/M03 A3011 RMK AO2 T00911026
KBIE 122055Z AUTO 25008KT 10SM CLR 09/M02 A3012 RMK AO2 T00871020
KBIE 122035Z AUTO 27010KT 10SM CLR 09/M02 A3012 RMK AO2 T00871017
KBIE 122015Z AUTO 26011KT 10SM CLR 09/M02 A3014 RMK AO2 T00851016
KBIE 121955Z AUTO 26011G15KT 10SM CLR 08/M01 A3015 RMK AO2 T00831015
KBIE 121935Z AUTO 27012KT 10SM SCT036 SCT042 08/M01 A3017 RMK AO2 T00791012
KBIE 121915Z AUTO 27009G16KT 10SM BKN036 BKN042 07/M01 A3020 RMK AO2 T00731015
KBIE 121855Z AUTO 27011G14KT 10SM SCT033 BKN039 07/M01 A3021 RMK AO2 T00701009
KBIE 121835Z AUTO 27009KT 10SM OVC038 06/M01 A3023 RMK AO2 T00641009
KBIE 121815Z AUTO 26007KT 10SM OVC038 05/M01 A3024 RMK AO2 T00521009
KBIE 121755Z AUTO 19004KT 10SM OVC038 04/M01 A3026 RMK AO2 T00431012 10043 21092
KBIE 121735Z AUTO 20004KT 10SM OVC038 03/M02 A3028 RMK AO2 T00261021
KBIE 121715Z AUTO 23006KT 10SM OVC038 02/M03 A3030 RMK AO2 T00171028
KBIE 121655Z AUTO 24006KT 10SM OVC036 01/M03 A3030 RMK AO2 T00071032
KBIE 121635Z AUTO 21004KT 10SM OVC036 M01/M04 A3032 RMK AO2 T10071041
KBIE 121615Z AUTO 00000KT 10SM OVC036 M01/M05 A3032 RMK AO2 T10151046
KBIE 121555Z AUTO 00000KT 10SM SCT036 M02/M05 A3033 RMK AO2 T10221050
KBIE 121535Z AUTO 00000KT 10SM CLR M03/M05 A3032 RMK AO2 T10341055
KBIE 121515Z AUTO 00000KT 10SM CLR M04/M06 A3032 RMK AO2 T10451061
KBIE 121455Z AUTO 00000KT 10SM CLR M05/M06 A3033 RMK AO2 T10501064
KBIE 121435Z AUTO 00000KT 10SM CLR M06/M07 A3033 RMK AO2 T10631074